Aegaeo — SXYY — position and weather

sailwx.info

Track history (hours):
 
Tides and Currents Weather Stations Pressure Air Temp Water Temp Dewpoint Dewpoint Depression Visibility Wind Speed Wind Dir Waves Ship Positions

Oceanographic research ship Aegaeo (Greece)

Detailed information on ship capabilities available from University of Delaware's Ocean Information Center.

Last reported at 2020-Sep-26 00:28 UTC. Time now 2020-Sep-29 08:04 UTC.
Position N 35°39' E 023°33'.

Length 61.5 m; beam 9.6 m; draft 2.9 m.

Type: Ship (hazmat cat B). MMSI: 237529000.

Date/timePositionNaut miles runAvg speedWind from/ knotsBaromVisibWave heightAir tempDewpointWater temp
2020-Sep-26 00:28N 35°39' E 023°33'5710.7
2020-Sep-25 19:09N 36°34' E 023°50'23 4.9
2020-Sep-25 14:30N 36°57' E 023°57'0 0.5
2020-Sep-25 14:00N 36°57' E 023°57'0 0.3
2020-Sep-25 13:30N 36°57' E 023°57'42 8.3
2020-Sep-25 08:30N 37°37' E 023°43'7 6.5
2020-Sep-25 07:30N 37°43' E 023°40'611.7
2020-Sep-25 07:01N 37°48' E 023°37'8 8.4
2020-Sep-25 06:01N 37°56' E 023°38'  
Track history (hours):
 
Tides and Currents Weather Stations Pressure Air Temp Water Temp Dewpoint Dewpoint Depression Visibility Wind Speed Wind Dir Waves Ship Positions

Oceanographic research ship Aegaeo (Greece)

Detailed information on ship capabilities available from University of Delaware's Ocean Information Center.

Last reported at 2020-Sep-26 00:28 UTC. Time now 2020-Sep-29 08:04 UTC.
Position N 35°39' E 023°33'.

Length 61.5 m; beam 9.6 m; draft 2.9 m.

Type: Ship (hazmat cat B). MMSI: 237529000.

Date/timePositionNaut miles runAvg speedWind from/ knotsBaromVisibWave heightAir tempDewpointWater temp
2020-Sep-26 00:28N 35°39' E 023°33'5710.7
2020-Sep-25 19:09N 36°34' E 023°50'23 4.9
2020-Sep-25 14:30N 36°57' E 023°57'0 0.5
2020-Sep-25 14:00N 36°57' E 023°57'0 0.3
2020-Sep-25 13:30N 36°57' E 023°57'42 8.3
2020-Sep-25 08:30N 37°37' E 023°43'7 6.5
2020-Sep-25 07:30N 37°43' E 023°40'611.7
2020-Sep-25 07:01N 37°48' E 023°37'8 8.4
2020-Sep-25 06:01N 37°56' E 023°38'  

Dump ship's entire track history